Time;durP1;ratioP1;P1;durP2;ratioP2;P2;SDS_P1;SDS_P2;PMS_P1;PMS_P2;Temp;Humidity;BMP_temperature;BMP_pressure;BME280_temperature;BME280_humidity;BME280_pressure;Samples;Min_cycle;Max_cycle;Signal;HPM_P1;HPM_P2
2020/12/19 00:00:36;;;;;;;43.00;19.10;;;;;;;0.14;77.12;101455.77;1749019;82;21192;-80
2020/12/19 00:03:41;;;;;;;43.13;22.15;;;;;;;0.17;77.14;101452.02;1748814;82;21319;-81
2020/12/19 00:06:53;;;;;;;42.70;20.17;;;;;;;0.20;77.20;101453.22;1749089;82;21176;-81
2020/12/19 00:10:00;;;;;;;40.95;19.00;;;;;;;0.23;77.15;101453.03;1747473;82;21296;-81
2020/12/19 00:13:06;;;;;;;33.18;16.25;;;;;;;0.26;77.01;101451.53;1749036;82;21354;-80
2020/12/19 00:16:11;;;;;;;38.65;16.73;;;;;;;0.28;76.93;101451.44;1748901;82;21898;-80
2020/12/19 00:19:16;;;;;;;38.23;16.70;;;;;;;0.27;76.84;101449.70;1749084;82;21291;-80
2020/12/19 00:22:22;;;;;;;36.63;18.07;;;;;;;0.23;76.73;101453.89;1749102;82;21283;-81
2020/12/19 00:25:28;;;;;;;40.28;17.27;;;;;;;0.25;76.85;101449.80;1747374;82;21331;-81
2020/12/19 00:28:34;;;;;;;32.55;15.20;;;;;;;0.27;76.77;101447.02;1747664;82;21286;-80
2020/12/19 00:31:42;;;;;;;45.78;17.90;;;;;;;0.27;76.78;101434.42;1747895;82;21874;-81
2020/12/19 00:34:48;;;;;;;43.25;17.85;;;;;;;0.30;76.69;101436.09;1747691;82;21295;-81
2020/12/19 00:37:54;;;;;;;47.83;21.10;;;;;;;0.32;76.59;101438.21;1748081;82;21322;-81
2020/12/19 00:41:01;;;;;;;53.25;22.02;;;;;;;0.37;76.54;101434.80;1747672;82;21299;-81
2020/12/19 00:44:08;;;;;;;34.67;15.03;;;;;;;0.39;76.37;101425.70;1747518;82;21323;-81
2020/12/19 00:47:14;;;;;;;36.15;14.00;;;;;;;0.38;76.01;101418.58;1748501;82;21261;-81
2020/12/19 00:50:21;;;;;;;38.67;19.32;;;;;;;0.29;75.87;101419.56;1749165;82;21338;-81
2020/12/19 00:53:26;;;;;;;43.70;18.73;;;;;;;0.21;76.04;101423.52;1749146;82;21791;-81
2020/12/19 00:56:33;;;;;;;46.25;18.85;;;;;;;0.17;76.19;101430.02;1748227;82;21361;-80
2020/12/19 00:59:38;;;;;;;36.20;17.62;;;;;;;0.17;76.40;101419.25;1748897;82;21255;-80
2020/12/19 01:02:44;;;;;;;44.55;20.45;;;;;;;0.21;76.50;101414.10;1748189;82;21310;-80
2020/12/19 01:05:49;;;;;;;37.33;18.77;;;;;;;0.21;76.46;101412.76;1747713;82;21330;-81
2020/12/19 01:08:57;;;;;;;42.27;20.88;;;;;;;0.18;76.74;101408.88;1748979;82;21184;-81
2020/12/19 01:12:05;;;;;;;28.38;15.68;;;;;;;0.19;76.86;101403.91;1747743;82;21287;-80
2020/12/19 01:15:13;;;;;;;41.08;18.82;;;;;;;0.19;76.83;101405.26;1747782;82;21287;-80
2020/12/19 01:18:20;;;;;;;36.75;17.02;;;;;;;0.15;76.84;101406.37;1748215;82;21949;-81
2020/12/19 01:21:29;;;;;;;38.00;18.32;;;;;;;0.12;77.08;101406.53;1749017;82;21306;-81
2020/12/19 01:24:35;;;;;;;34.67;16.37;;;;;;;0.17;77.32;101404.94;1749062;82;21323;-80
2020/12/19 01:27:40;;;;;;;30.02;14.05;;;;;;;0.22;77.33;101400.17;1748975;82;21861;-80
2020/12/19 01:30:46;;;;;;;28.65;14.50;;;;;;;0.24;77.23;101396.94;1749109;82;21716;-80
2020/12/19 01:33:52;;;;;;;33.92;16.57;;;;;;;0.19;77.08;101399.02;1747883;82;21366;-80
2020/12/19 01:36:59;;;;;;;35.65;16.40;;;;;;;0.13;77.29;101393.94;1748645;82;21319;-79
2020/12/19 01:40:05;;;;;;;35.38;15.88;;;;;;;0.18;77.50;101391.86;1747629;82;21187;-80
2020/12/19 01:43:12;;;;;;;36.15;16.17;;;;;;;0.18;77.36;101388.70;1749047;82;21351;-80
2020/12/19 01:46:20;;;;;;;33.75;15.63;;;;;;;0.15;77.32;101398.30;1747892;82;21217;-80
2020/12/19 01:49:25;;;;;;;35.28;15.60;;;;;;;0.12;77.52;101387.69;1748962;82;21332;-80
2020/12/19 01:52:31;;;;;;;32.95;15.60;;;;;;;0.13;77.55;101392.11;1749090;82;21280;-80
2020/12/19 01:55:37;;;;;;;35.48;14.80;;;;;;;0.10;77.55;101385.58;1749010;82;21759;-80
2020/12/19 01:58:42;;;;;;;37.00;16.15;;;;;;;0.08;77.65;101376.70;1750878;82;21335;-80
2020/12/19 02:02:03;;;;;;;35.25;14.78;;;;;;;0.05;77.76;101376.89;1751217;82;21566;-80
2020/12/19 02:05:08;;;;;;;35.33;15.98;;;;;;;0.06;77.88;101374.59;1752578;82;21315;-80
2020/12/19 02:08:15;;;;;;;39.30;17.67;;;;;;;0.03;77.92;101377.43;1752413;82;21318;-79
2020/12/19 02:11:21;;;;;;;33.65;16.10;;;;;;;0.04;78.02;101370.22;1751285;82;21283;-80
2020/12/19 02:14:26;;;;;;;38.00;16.60;;;;;;;0.07;78.04;101368.25;1750988;82;21327;-80
2020/12/19 02:17:32;;;;;;;38.98;15.72;;;;;;;0.11;78.05;101368.95;1752240;82;21862;-80
2020/12/19 02:20:38;;;;;;;35.85;16.57;;;;;;;0.16;78.04;101371.78;1750824;82;21227;-80
2020/12/19 02:23:44;;;;;;;32.70;16.90;;;;;;;0.20;77.92;101368.45;1751092;82;21311;-80
2020/12/19 02:26:56;;;;;;;36.90;15.63;;;;;;;0.26;77.91;101366.77;1750872;82;21323;-80
2020/12/19 02:30:03;;;;;;;38.25;18.65;;;;;;;0.28;77.69;101372.91;1752091;82;21255;-80
2020/12/19 02:33:08;;;;;;;40.63;20.32;;;;;;;0.33;77.77;101363.23;1752185;82;21736;-81
2020/12/19 02:36:13;;;;;;;39.88;19.57;;;;;;;0.41;77.58;101366.38;1751768;82;21350;-81
2020/12/19 02:39:18;;;;;;;35.38;16.40;;;;;;;0.45;77.29;101366.13;1751657;82;21318;-81
2020/12/19 02:42:23;;;;;;;39.27;17.50;;;;;;;0.45;77.00;101363.44;1752243;82;21161;-81
2020/12/19 02:45:30;;;;;;;40.95;20.32;;;;;;;0.39;77.02;101358.88;1752236;82;21306;-81
2020/12/19 02:48:36;;;;;;;40.65;19.35;;;;;;;0.41;77.12;101365.03;1752224;82;21177;-81
2020/12/19 02:51:43;;;;;;;35.08;18.35;;;;;;;0.44;77.06;101364.88;1752226;82;21283;-81
2020/12/19 02:54:49;;;;;;;32.75;14.98;;;;;;;0.43;77.17;101368.53;1751373;82;21299;-80
2020/12/19 02:57:54;;;;;;;35.15;17.00;;;;;;;0.42;77.31;101368.98;1751003;81;21335;-80
2020/12/19 03:01:00;;;;;;;36.63;17.25;;;;;;;0.42;77.43;101364.94;1747523;82;21279;-80
2020/12/19 03:04:06;;;;;;;34.60;16.52;;;;;;;0.46;77.60;101361.12;1749075;82;21279;-80
2020/12/19 03:07:13;;;;;;;30.27;15.48;;;;;;;0.51;77.50;101364.91;1748358;82;21319;-80
2020/12/19 03:10:19;;;;;;;29.42;15.05;;;;;;;0.50;77.24;101368.56;1749125;82;21330;-80
2020/12/19 03:13:24;;;;;;;34.25;17.20;;;;;;;0.45;77.27;101363.44;1749184;82;21176;-80
2020/12/19 03:16:30;;;;;;;30.70;14.13;;;;;;;0.43;77.42;101359.11;1748749;82;21291;-80
2020/12/19 03:19:36;;;;;;;30.77;15.35;;;;;;;0.45;77.47;101353.14;1748753;82;21830;-80
2020/12/19 03:22:42;;;;;;;30.60;15.35;;;;;;;0.41;77.33;101354.27;1748967;82;21286;-80
2020/12/19 03:25:50;;;;;;;32.15;16.35;;;;;;;0.37;77.47;101362.12;1749006;82;21287;-80
2020/12/19 03:28:55;;;;;;;33.75;16.25;;;;;;;0.39;77.76;101366.95;1748708;82;21303;-80
2020/12/19 03:32:01;;;;;;;35.10;18.20;;;;;;;0.41;77.78;101363.69;1748438;82;21307;-80
2020/12/19 03:35:06;;;;;;;42.98;20.70;;;;;;;0.43;77.90;101353.24;1748210;82;21854;-80
2020/12/19 03:38:12;;;;;;;41.18;20.17;;;;;;;0.45;77.73;101362.56;1747447;82;21235;-80
2020/12/19 03:41:18;;;;;;;46.00;22.55;;;;;;;0.45;77.71;101363.44;1748903;82;21882;-81
2020/12/19 03:44:24;;;;;;;51.02;24.60;;;;;;;0.46;77.66;101358.44;1748610;82;21295;-80
2020/12/19 03:47:29;;;;;;;47.17;21.95;;;;;;;0.48;77.60;101358.38;1748300;82;21902;-80
2020/12/19 03:50:34;;;;;;;49.58;22.93;;;;;;;0.53;77.51;101355.42;1748592;82;21795;-80
2020/12/19 03:53:39;;;;;;;52.95;22.32;;;;;;;0.49;77.36;101356.06;1749167;82;21219;-80
2020/12/19 03:56:45;;;;;;;49.65;23.50;;;;;;;0.46;77.37;101351.70;1747691;82;21632;-80
2020/12/19 03:59:51;;;;;;;42.73;21.40;;;;;;;0.45;77.54;101353.14;1749832;82;21334;-80
2020/12/19 04:02:58;;;;;;;37.03;19.12;;;;;;;0.44;77.45;101356.80;1752355;82;21299;-80
2020/12/19 04:06:04;;;;;;;43.38;19.10;;;;;;;0.43;77.58;101349.69;1751689;82;21889;-80
2020/12/19 04:09:09;;;;;;;40.30;20.85;;;;;;;0.44;77.58;101356.32;1752296;82;21827;-80
2020/12/19 04:12:16;;;;;;;40.75;19.25;;;;;;;0.47;77.54;101360.64;1750786;82;21288;-80
2020/12/19 04:15:24;;;;;;;36.13;16.93;;;;;;;0.47;77.45;101360.20;1750818;82;21235;-81
2020/12/19 04:18:30;;;;;;;32.03;14.75;;;;;;;0.51;77.45;101348.27;1750582;82;21864;-80
2020/12/19 04:21:36;;;;;;;35.38;15.45;;;;;;;0.53;77.27;101345.52;1751525;82;21358;-81
2020/12/19 04:24:41;;;;;;;37.13;16.97;;;;;;;0.49;77.13;101345.30;1752327;82;21831;-80
2020/12/19 04:27:48;;;;;;;42.00;18.17;;;;;;;0.43;77.21;101353.24;1751812;82;22730;-80
2020/12/19 04:30:54;;;;;;;46.28;19.55;;;;;;;0.36;77.36;101350.97;1752182;82;21299;-80
2020/12/19 04:33:59;;;;;;;44.13;20.45;;;;;;;0.34;77.65;101353.75;1752495;82;21270;-80
2020/12/19 04:37:05;;;;;;;42.73;20.08;;;;;;;0.33;77.85;101352.47;1751204;82;21177;-80
2020/12/19 04:40:11;;;;;;;43.13;20.68;;;;;;;0.32;78.03;101350.74;1752479;82;21819;-80
2020/12/19 04:43:26;;;;;;;40.05;20.37;;;;;;;0.28;78.05;101354.55;1752989;82;21292;-80
2020/12/19 04:46:32;;;;;;;43.90;19.27;;;;;;;0.24;78.13;101354.75;1752811;82;21275;-80
2020/12/19 04:49:37;;;;;;;36.63;18.00;;;;;;;0.19;78.09;101344.72;1751139;82;21303;-80
2020/12/19 04:52:43;;;;;;;37.48;18.17;;;;;;;0.08;78.24;101353.83;1731958;82;21382;-80
2020/12/19 04:55:49;;;;;;;39.80;19.52;;;;;;;-0.01;78.50;101355.68;1752043;82;21351;-80
2020/12/19 04:59:00;;;;;;;45.15;23.62;;;;;;;-0.03;78.93;101365.66;1751353;82;21338;-80
2020/12/19 05:02:06;;;;;;;41.92;21.42;;;;;;;-0.03;79.13;101361.16;1708918;82;21216;-80
2020/12/19 05:05:15;;;;;;;46.68;21.75;;;;;;;0.02;79.47;101364.94;1737704;82;21232;-80
2020/12/19 05:08:21;;;;;;;41.85;18.17;;;;;;;0.09;79.55;101365.45;1738778;82;21894;-80
2020/12/19 05:11:27;;;;;;;37.23;18.07;;;;;;;0.17;79.55;101364.09;1739365;82;21813;-80
2020/12/19 05:14:33;;;;;;;44.05;20.02;;;;;;;0.20;79.37;101372.01;1739373;82;21192;-81
2020/12/19 05:17:37;;;;;;;39.08;19.45;;;;;;;0.17;79.23;101369.47;1707741;82;21191;-80
2020/12/19 05:20:43;;;;;;;39.10;19.48;;;;;;;0.15;79.12;101375.43;1739327;82;21708;-80
2020/12/19 05:23:50;;;;;;;39.88;19.27;;;;;;;0.16;79.23;101377.16;1707697;82;21295;-80
2020/12/19 05:26:55;;;;;;;41.33;20.02;;;;;;;0.16;79.38;101376.30;1739392;82;21232;-80
2020/12/19 05:30:02;;;;;;;34.25;17.48;;;;;;;0.16;79.52;101373.13;1737957;82;21322;-80
2020/12/19 05:33:07;;;;;;;43.50;20.70;;;;;;;0.16;79.49;101382.55;1708489;82;21232;-80
2020/12/19 05:36:14;;;;;;;46.28;20.52;;;;;;;0.16;79.51;101378.51;1726292;82;21339;-80
2020/12/19 05:39:19;;;;;;;45.25;20.45;;;;;;;0.17;79.55;101385.63;1737840;82;21827;-80
2020/12/19 05:42:31;;;;;;;37.28;17.82;;;;;;;0.19;79.56;101390.45;1739348;82;21290;-80
2020/12/19 05:45:36;;;;;;;;;;;;;;;0.23;79.75;101389.31;1741905;82;21350;-81
2020/12/19 05:48:41;;;;;;;37.28;18.75;;;;;;;0.28;79.74;101398.48;1739011;82;20274;-80
2020/12/19 05:51:49;;;;;;;42.65;20.35;;;;;;;0.29;79.61;101393.52;1739260;82;21291;-80
2020/12/19 05:54:55;;;;;;;47.67;21.85;;;;;;;0.27;79.49;101396.75;1739252;82;21727;-81
2020/12/19 05:58:01;;;;;;;46.18;21.57;;;;;;;0.29;79.42;101411.01;1739235;82;21184;-80
2020/12/19 06:01:06;;;;;;;45.40;22.07;;;;;;;0.30;79.36;101405.14;1739286;82;21302;-80
2020/12/19 06:04:11;;;;;;;54.63;22.00;;;;;;;0.29;79.39;101411.48;1744148;81;21307;-80
2020/12/19 06:07:17;;;;;;;51.08;23.67;;;;;;;0.30;79.49;101414.08;1744914;81;21310;-80
2020/12/19 06:10:24;;;;;;;43.55;20.50;;;;;;;0.31;79.44;101414.47;1726344;81;21326;-80
2020/12/19 06:13:29;;;;;;;50.55;19.02;;;;;;;0.30;79.50;101417.25;1765049;81;21184;-81
2020/12/19 06:16:34;;;;;;;43.52;19.73;;;;;;;0.27;79.60;101422.31;1765067;81;21287;-80
2020/12/19 06:19:41;;;;;;;43.68;20.77;;;;;;;0.23;79.47;101422.08;1764389;81;21810;-80
2020/12/19 06:22:39;;;;;;;46.15;22.42;;;;;;;0.21;79.58;101418.14;1744190;81;21306;-80
2020/12/19 06:25:53;;;;;;;43.15;20.75;;;;;;;0.25;79.68;101426.44;1765332;81;21361;-80
2020/12/19 06:28:59;;;;;;;49.33;23.20;;;;;;;0.30;79.64;101423.50;1765142;81;21283;-81
2020/12/19 06:32:08;;;;;;;45.67;22.48;;;;;;;0.32;79.56;101423.41;1765074;81;21306;-80
2020/12/19 06:35:19;;;;;;;41.25;22.32;;;;;;;0.34;79.51;101421.05;1765237;81;21278;-80
2020/12/19 06:38:44;;;;;;;51.13;24.05;;;;;;;0.37;79.41;101426.23;1764494;81;21299;-80
2020/12/19 06:42:00;;;;;;;47.60;21.27;;;;;;;0.38;79.39;101421.27;1765272;81;21282;-80
2020/12/19 06:45:28;;;;;;;43.80;21.27;;;;;;;0.40;79.19;101431.46;1763770;81;21168;-80
2020/12/19 06:48:41;;;;;;;37.73;20.20;;;;;;;0.47;79.17;101426.16;1765348;81;21287;-80
2020/12/19 06:52:14;;;;;;;53.42;21.75;;;;;;;0.57;78.98;101433.72;1765227;81;21211;-80
2020/12/19 06:55:29;;;;;;;41.95;18.23;;;;;;;0.57;78.73;101425.16;1765010;81;21820;-80
2020/12/19 06:58:41;;;;;;;48.98;21.25;;;;;;;0.58;78.77;101429.59;1763642;81;21299;-80
2020/12/19 07:01:46;;;;;;;44.53;20.85;;;;;;;0.56;78.67;101435.52;1765255;81;21297;-80
2020/12/19 07:04:51;;;;;;;45.33;21.45;;;;;;;0.52;78.70;101433.97;1765211;81;21184;-80
2020/12/19 07:07:58;;;;;;;45.95;20.57;;;;;;;0.52;78.87;101428.59;1765169;81;21295;-80
2020/12/19 07:11:05;;;;;;;48.35;18.37;;;;;;;0.54;78.84;101426.67;1763528;81;21195;-81
2020/12/19 07:14:10;;;;;;;52.15;21.42;;;;;;;0.62;78.94;101428.95;1765025;81;21533;-81
2020/12/19 07:17:25;;;;;;;50.80;20.97;;;;;;;0.65;78.87;101422.89;1765165;81;21334;-80
2020/12/19 07:20:31;;;;;;;56.30;22.50;;;;;;;0.74;78.91;101426.41;1764522;81;21338;-81
2020/12/19 07:23:37;;;;;;;53.95;20.60;;;;;;;0.78;78.54;101424.91;1765031;81;21925;-80
2020/12/19 07:26:42;;;;;;;43.63;18.45;;;;;;;0.76;78.60;101423.17;1765036;81;21196;-80
2020/12/19 07:29:47;;;;;;;50.83;20.95;;;;;;;0.83;78.68;101421.47;1764272;81;21345;-80
2020/12/19 07:32:53;;;;;;;45.60;20.02;;;;;;;0.81;78.49;101422.05;1765201;81;21290;-80
2020/12/19 07:35:58;;;;;;;44.00;19.70;;;;;;;0.76;78.48;101427.70;1765169;81;21294;-80
2020/12/19 07:39:08;;;;;;;41.75;19.10;;;;;;;0.71;78.59;101425.27;1765095;81;21298;-80
2020/12/19 07:42:17;;;;;;;44.15;20.25;;;;;;;0.66;78.83;101421.96;1765370;81;21314;-80
2020/12/19 07:45:26;;;;;;;48.28;21.00;;;;;;;0.68;79.18;101428.11;1764284;81;21758;-80
2020/12/19 07:48:32;;;;;;;44.27;19.87;;;;;;;0.67;79.10;101426.38;1765077;81;21787;-80
2020/12/19 07:51:37;;;;;;;39.73;19.30;;;;;;;0.68;79.33;101422.73;1764051;81;21298;-80
2020/12/19 07:54:43;;;;;;;48.10;22.00;;;;;;;0.70;79.41;101421.28;1764880;81;21339;-80
2020/12/19 07:57:49;;;;;;;41.92;21.15;;;;;;;0.73;79.46;101419.78;1764874;81;21854;-80
2020/12/19 08:00:55;;;;;;;44.10;21.33;;;;;;;0.80;79.64;101426.57;1763163;81;21334;-81
2020/12/19 08:04:07;;;;;;;44.90;20.52;;;;;;;0.84;79.42;101421.86;1760921;81;21310;-80
2020/12/19 08:07:13;;;;;;;46.58;22.55;;;;;;;0.82;79.39;101419.26;1752123;82;21303;-80
2020/12/19 08:10:20;;;;;;;42.83;20.75;;;;;;;0.84;79.38;101415.12;1752217;82;21894;-80
2020/12/19 08:13:25;;;;;;;47.35;20.72;;;;;;;0.86;79.39;101413.23;1752220;82;21287;-80
2020/12/19 08:16:30;;;;;;;42.70;20.82;;;;;;;0.88;79.55;101409.95;1752192;82;21788;-81
2020/12/19 08:19:43;;;;;;;46.05;20.52;;;;;;;0.92;79.55;101407.48;1752127;82;21208;-80
2020/12/19 08:22:52;;;;;;;45.58;22.27;;;;;;;0.95;79.46;101406.84;1752152;82;21149;-80
2020/12/19 08:26:00;;;;;;;37.95;20.50;;;;;;;0.98;79.34;101400.38;1750947;82;21890;-80
2020/12/19 08:29:14;;;;;;;43.35;21.27;;;;;;;0.98;79.40;101391.82;1752274;82;21807;-80
2020/12/19 08:32:19;;;;;;;42.35;20.97;;;;;;;1.01;79.33;101390.79;1751241;82;21874;-80
2020/12/19 08:35:31;;;;;;;38.08;20.62;;;;;;;1.02;79.29;101388.48;1714436;82;21366;-80
2020/12/19 08:38:38;;;;;;;46.10;22.87;;;;;;;1.09;79.56;101393.91;1752081;82;21295;-80
2020/12/19 08:41:45;;;;;;;43.95;20.97;;;;;;;1.17;79.43;101394.31;1751570;82;21275;-80
2020/12/19 08:44:50;;;;;;;41.90;20.27;;;;;;;1.15;79.08;101388.16;1752300;82;21306;-80
2020/12/19 08:47:58;;;;;;;47.80;22.52;;;;;;;1.11;79.08;101383.91;1752129;82;21180;-80
2020/12/19 08:51:03;;;;;;;41.33;21.17;;;;;;;1.17;79.16;101388.06;1751345;82;21267;-81
2020/12/19 08:54:19;;;;;;;46.30;22.25;;;;;;;1.23;79.00;101387.23;1752104;82;21750;-80
2020/12/19 08:57:35;;;;;;;44.50;21.48;;;;;;;1.23;78.78;101378.28;1752288;82;21171;-81
2020/12/19 09:00:44;;;;;;;36.03;17.27;;;;;;;1.23;78.88;101375.59;1752316;82;21347;-81
2020/12/19 09:03:52;;;;;;;35.63;18.73;;;;;;;1.31;78.82;101372.42;1752289;82;21339;-81
2020/12/19 09:06:59;;;;;;;40.58;20.57;;;;;;;1.34;78.50;101369.55;1715890;82;21302;-80
2020/12/19 09:10:06;;;;;;;37.53;19.12;;;;;;;1.43;78.58;101369.01;1720067;82;21318;-80
2020/12/19 09:13:31;;;;;;;34.10;19.40;;;;;;;1.55;78.31;101366.90;1750064;81;21310;-80
2020/12/19 09:16:39;;;;;;;33.90;16.32;;;;;;;1.66;78.20;101366.27;1742269;81;21716;-81
2020/12/19 09:19:45;;;;;;;31.65;17.02;;;;;;;1.78;77.97;101358.27;1730384;81;21276;-80
2020/12/19 09:22:50;;;;;;;34.58;17.80;;;;;;;1.83;77.69;101356.64;1729524;82;21810;-80
2020/12/19 09:25:55;;;;;;;37.38;19.87;;;;;;;1.84;77.68;101364.28;1727547;82;21202;-79
2020/12/19 09:29:04;;;;;;;37.45;19.65;;;;;;;1.78;77.26;101363.67;1722205;83;21798;-80
2020/12/19 09:32:09;;;;;;;35.58;20.15;;;;;;;1.70;77.33;101365.99;1704899;84;21839;-80
2020/12/19 09:35:14;;;;;;;44.00;21.02;;;;;;;1.64;77.31;101360.95;1695575;83;22620;-80
2020/12/19 09:38:20;;;;;;;41.40;22.32;;;;;;;1.56;77.54;101358.36;1705807;84;21882;-80
2020/12/19 09:41:26;;;;;;;44.67;22.42;;;;;;;1.51;77.97;101358.64;1724528;81;21301;-80
2020/12/19 09:44:31;;;;;;;50.52;26.25;;;;;;;1.49;78.13;101359.19;1728845;81;21843;-80
2020/12/19 09:47:41;;;;;;;54.27;27.45;;;;;;;1.49;78.49;101355.14;1735851;82;21413;-80
2020/12/19 09:50:45;;;;;;;48.17;25.32;;;;;;;1.53;78.57;101352.66;1736679;82;21239;-80
2020/12/19 09:53:51;;;;;;;42.35;21.23;;;;;;;1.54;78.59;101354.38;1712174;82;21364;-80
2020/12/19 09:56:56;;;;;;;58.73;28.38;;;;;;;1.54;78.80;101348.98;1758487;81;21165;-79
2020/12/19 10:00:01;;;;;;;53.20;28.40;;;;;;;1.53;78.86;101348.61;1738017;81;21193;-79
2020/12/19 10:03:08;;;;;;;60.58;29.70;;;;;;;1.52;79.19;101346.40;1751329;82;21295;-80
2020/12/19 10:06:14;;;;;;;59.23;30.27;;;;;;;1.56;79.46;101345.74;1749920;82;21255;-80
2020/12/19 10:09:21;;;;;;;58.63;27.48;;;;;;;1.64;79.64;101341.20;1711380;83;21821;-80
2020/12/19 10:12:28;;;;;;;57.65;28.90;;;;;;;1.71;79.38;101339.88;1752492;80;21313;-80
2020/12/19 10:15:34;;;;;;;58.15;30.60;;;;;;;1.67;79.22;101336.98;1757224;81;21839;-81
2020/12/19 10:18:41;;;;;;;53.45;28.15;;;;;;;1.64;79.25;101327.72;1732446;83;21207;-80
2020/12/19 10:21:48;;;;;;;55.03;31.97;;;;;;;1.62;79.24;101324.27;1732237;83;21267;-80
2020/12/19 10:24:55;;;;;;;57.05;28.00;;;;;;;1.58;79.43;101322.23;1758941;80;21185;-81
2020/12/19 10:28:01;;;;;;;59.83;28.27;;;;;;;1.54;79.60;101316.63;1779338;80;21312;-80
2020/12/19 10:31:06;;;;;;;55.65;26.00;;;;;;;1.51;79.71;101315.49;1762541;80;21286;-80
2020/12/19 10:34:14;;;;;;;55.70;26.15;;;;;;;1.46;79.76;101317.61;1760935;81;21334;-80
2020/12/19 10:37:20;;;;;;;67.90;31.37;;;;;;;1.40;79.91;101316.61;1761589;81;21217;-80
2020/12/19 10:40:25;;;;;;;66.05;31.60;;;;;;;1.38;80.09;101313.15;1762162;81;21262;-80
2020/12/19 10:43:30;;;;;;;80.77;34.60;;;;;;;1.39;80.19;101311.70;1759312;81;21267;-80
2020/12/19 10:46:37;;;;;;;82.85;34.48;;;;;;;1.41;80.34;101311.14;1731815;81;21810;-79
2020/12/19 10:49:43;;;;;;;82.85;32.75;;;;;;;1.42;80.45;101312.88;1758578;81;21821;-81
2020/12/19 10:52:48;;;;;;;80.28;32.83;;;;;;;1.40;80.42;101308.52;1756303;81;21310;-79
2020/12/19 10:55:54;;;;;;;85.38;34.00;;;;;;;1.34;80.42;101306.20;1761503;81;21329;-80
2020/12/19 10:58:59;;;;;;;101.35;38.70;;;;;;;1.32;80.59;101306.31;1740483;81;21345;-80
2020/12/19 11:02:04;;;;;;;93.87;40.05;;;;;;;1.30;80.69;101301.95;1759393;81;21702;-80
2020/12/19 11:05:10;;;;;;;81.15;33.10;;;;;;;1.29;80.85;101301.09;1746006;81;21816;-80
2020/12/19 11:08:17;;;;;;;80.10;32.00;;;;;;;1.29;81.03;101303.79;1738206;81;21228;-80
2020/12/19 11:11:22;;;;;;;102.67;39.90;;;;;;;1.27;81.00;101301.20;1758474;81;21902;-80
2020/12/19 11:14:29;;;;;;;111.57;37.88;;;;;;;1.25;81.09;101303.09;1688160;84;22000;-80
2020/12/19 11:17:33;;;;;;;104.25;39.18;;;;;;;1.23;81.28;101300.98;1713782;81;21381;-79
2020/12/19 11:20:39;;;;;;;100.65;39.27;;;;;;;1.24;81.43;101305.41;1697633;84;21195;-79
2020/12/19 11:23:48;;;;;;;107.27;40.30;;;;;;;1.26;81.63;101296.73;1650066;87;21210;-79
2020/12/19 11:26:55;;;;;;;108.47;40.50;;;;;;;1.32;81.86;101298.22;1669068;86;21238;-79
2020/12/19 11:30:01;;;;;;;112.10;39.45;;;;;;;1.36;81.91;101292.14;1649021;87;21337;-79
2020/12/19 11:33:07;;;;;;;94.28;37.40;;;;;;;1.40;81.88;101295.04;1668185;86;22635;-80
2020/12/19 11:36:13;;;;;;;101.82;40.38;;;;;;;1.41;81.71;101290.03;1661303;85;22516;-80
2020/12/19 11:39:19;;;;;;;86.47;35.45;;;;;;;1.42;81.65;101291.78;1732265;83;21298;-80
2020/12/19 11:42:24;;;;;;;103.97;39.60;;;;;;;1.42;81.48;101283.22;1749291;81;21232;-80
2020/12/19 11:45:30;;;;;;;82.15;32.15;;;;;;;1.39;81.38;101286.09;1749021;81;21340;-80
2020/12/19 11:48:36;;;;;;;94.70;33.38;;;;;;;1.42;81.45;101282.35;1738731;82;21933;-80
2020/12/19 11:51:43;;;;;;;82.70;33.38;;;;;;;1.45;81.33;101294.27;1752689;82;21297;-80
2020/12/19 11:54:49;;;;;;;85.53;34.92;;;;;;;1.42;81.14;101294.00;1738242;82;21345;-80
2020/12/19 11:57:57;;;;;;;94.13;37.08;;;;;;;1.42;81.12;101292.66;1739097;82;22388;-80
2020/12/19 12:01:04;;;;;;;101.27;37.60;;;;;;;1.43;81.11;101289.47;1741468;82;21280;-80
2020/12/19 12:04:10;;;;;;;99.10;36.55;;;;;;;1.46;81.17;101286.59;1745302;82;21218;-79
2020/12/19 12:07:15;;;;;;;87.47;33.83;;;;;;;1.48;81.23;101284.66;1747444;82;21760;-79
2020/12/19 12:10:20;;;;;;;86.72;36.70;;;;;;;1.57;81.37;101280.53;1749290;81;21395;-79
2020/12/19 12:13:25;;;;;;;86.35;36.60;;;;;;;1.59;81.16;101279.45;1750163;82;21412;-78
2020/12/19 12:16:32;;;;;;;95.05;36.73;;;;;;;1.63;81.06;101282.84;1722911;82;21259;-80
2020/12/19 12:19:38;;;;;;;87.88;35.10;;;;;;;1.65;80.87;101280.45;1719249;83;21239;-81
2020/12/19 12:22:45;;;;;;;84.70;32.20;;;;;;;1.66;80.81;101285.36;1720295;83;21268;-81
2020/12/19 12:25:51;;;;;;;74.55;29.67;;;;;;;1.68;80.79;101283.42;1719127;83;21333;-81
2020/12/19 12:28:57;;;;;;;94.25;36.50;;;;;;;1.69;80.50;101279.27;1720731;83;21869;-81
2020/12/19 12:32:05;;;;;;;89.65;35.63;;;;;;;1.70;80.29;101288.25;1720916;83;21310;-81
2020/12/19 12:35:11;;;;;;;86.75;36.63;;;;;;;1.69;80.16;101283.31;1720290;83;21746;-81
2020/12/19 12:38:16;;;;;;;82.37;35.30;;;;;;;1.67;80.29;101285.25;1720614;82;21337;-81
2020/12/19 12:41:22;;;;;;;70.83;28.77;;;;;;;1.70;80.32;101281.52;1721769;83;21786;-80
2020/12/19 12:44:28;;;;;;;82.53;32.42;;;;;;;1.70;80.01;101284.21;1721607;83;21306;-81
2020/12/19 12:47:35;;;;;;;67.22;31.60;;;;;;;1.67;79.91;101289.78;1722364;83;21822;-80
2020/12/19 12:50:41;;;;;;;81.92;32.63;;;;;;;1.66;79.96;101287.57;1721157;83;21208;-81
2020/12/19 12:53:47;;;;;;;67.97;30.60;;;;;;;1.65;79.81;101291.23;1722306;83;21290;-81
2020/12/19 12:56:52;;;;;;;71.67;32.10;;;;;;;1.60;79.75;101285.27;1722388;83;21335;-81
2020/12/19 12:59:58;;;;;;;88.72;31.52;;;;;;;1.56;79.76;101291.81;1722409;83;21342;-81
2020/12/19 13:03:04;;;;;;;71.35;30.72;;;;;;;1.52;79.91;101288.91;1721075;83;21298;-80
2020/12/19 13:06:10;;;;;;;58.35;28.95;;;;;;;1.47;79.97;101292.38;1748374;82;21224;-80
2020/12/19 13:09:16;;;;;;;64.58;31.55;;;;;;;1.45;80.06;101295.63;1751531;82;21292;-81
2020/12/19 13:12:22;;;;;;;66.20;30.85;;;;;;;1.43;80.17;101297.56;1751538;82;21184;-81
2020/12/19 13:15:26;;;;;;;50.55;25.12;;;;;;;1.43;80.29;101300.26;1750942;82;21343;-81
2020/12/19 13:18:33;;;;;;;55.00;26.87;;;;;;;1.42;80.36;101298.53;1752046;82;21287;-80
2020/12/19 13:21:33;;;;;;;63.73;29.80;;;;;;;1.38;80.43;101292.94;1751943;82;21525;-81
2020/12/19 13:24:39;;;;;;;64.05;30.40;;;;;;;1.37;80.48;101299.30;1751683;82;21287;-81
2020/12/19 13:27:45;;;;;;;58.83;28.62;;;;;;;1.37;80.53;101292.55;1750187;82;21196;-81
2020/12/19 13:30:50;;;;;;;66.97;32.63;;;;;;;1.35;80.56;101298.50;1751568;82;21310;-81
2020/12/19 13:33:55;;;;;;;62.08;28.98;;;;;;;1.36;80.69;101289.45;1751177;82;21815;-81
2020/12/19 13:37:01;;;;;;;57.48;28.55;;;;;;;1.38;80.79;101294.28;1750114;82;21767;-81
2020/12/19 13:40:06;;;;;;;50.38;25.95;;;;;;;1.39;80.69;101291.97;1751844;82;21885;-81
2020/12/19 13:43:13;;;;;;;76.53;32.10;;;;;;;1.35;80.64;101293.97;1752216;82;21275;-81
2020/12/19 13:46:21;;;;;;;64.05;27.17;;;;;;;1.28;80.67;101293.48;1751203;82;21319;-81
2020/12/19 13:49:27;;;;;;;56.92;29.65;;;;;;;1.25;80.93;101295.50;1752200;82;21327;-81
2020/12/19 13:52:33;;;;;;;61.18;30.25;;;;;;;1.22;81.10;101296.56;1752421;82;21326;-80
2020/12/19 13:55:39;;;;;;;62.38;29.50;;;;;;;1.19;81.31;101303.95;1751830;82;21378;-81
2020/12/19 13:58:45;;;;;;;59.93;32.20;;;;;;;1.20;81.50;101298.95;1752255;82;21831;-81
2020/12/19 14:01:51;;;;;;;57.83;30.55;;;;;;;1.20;81.58;101297.12;1731690;82;21306;-80
2020/12/19 14:04:57;;;;;;;58.63;31.17;;;;;;;1.24;81.65;101301.85;1752285;82;21121;-80
2020/12/19 14:08:04;;;;;;;59.42;31.65;;;;;;;1.25;81.64;101308.48;1752047;82;21165;-80
2020/12/19 14:11:10;;;;;;;66.65;29.95;;;;;;;1.24;81.57;101305.41;1747405;81;21310;-81
2020/12/19 14:14:16;;;;;;;49.48;27.00;;;;;;;1.24;81.70;101313.50;1738426;82;21180;-80
2020/12/19 14:17:21;;;;;;;63.95;31.33;;;;;;;1.22;81.78;101307.80;1738253;82;21381;-81